createdAt,value
2022-09-23T00:00:05.207Z,11.81
2022-09-23T00:00:17.205Z,11.82
2022-09-23T00:00:29.343Z,11.84
2022-09-23T00:00:45.728Z,11.85
2022-09-23T00:01:03.127Z,11.82
2022-09-23T00:01:15.251Z,11.79
2022-09-23T00:01:27.484Z,11.72
2022-09-23T00:01:39.462Z,11.73
2022-09-23T00:01:51.470Z,11.72
2022-09-23T00:02:03.608Z,11.71
2022-09-23T00:02:16.700Z,11.72
2022-09-23T00:02:28.705Z,11.71
2022-09-23T00:02:40.772Z,11.72
2022-09-23T00:02:52.800Z,11.72
2022-09-23T00:03:05.048Z,11.72
2022-09-23T00:03:16.991Z,11.73
2022-09-23T00:03:30.635Z,11.76
2022-09-23T00:03:46.816Z,11.76
2022-09-23T00:04:00.028Z,11.76
2022-09-23T00:04:11.979Z,11.76
2022-09-23T00:04:23.926Z,11.78
2022-09-23T00:04:35.902Z,11.79
2022-09-23T00:04:47.797Z,11.78
2022-09-23T00:04:59.704Z,11.78
2022-09-23T00:05:11.602Z,11.75
2022-09-23T00:05:23.536Z,11.75
2022-09-23T00:05:35.658Z,11.73
2022-09-23T00:05:58.589Z,11.78
2022-09-23T00:06:13.473Z,11.76
2022-09-23T00:06:27.972Z,11.71
2022-09-23T00:06:40.060Z,11.65
2022-09-23T00:06:52.078Z,11.68
2022-09-23T00:07:04.044Z,11.67
2022-09-23T00:07:16.313Z,11.68
2022-09-23T00:07:28.220Z,11.69
2022-09-23T00:07:40.159Z,11.69
2022-09-23T00:07:52.122Z,11.70
2022-09-23T00:08:08.095Z,11.68
2022-09-23T00:08:20.045Z,11.69
2022-09-23T00:08:32.297Z,11.71
2022-09-23T00:08:44.863Z,11.74
2022-09-23T00:08:56.755Z,11.75
2022-09-23T00:09:08.643Z,11.76
2022-09-23T00:09:20.528Z,11.77
2022-09-23T00:09:32.565Z,11.80
2022-09-23T00:09:44.446Z,11.80
2022-09-23T00:09:56.398Z,11.79
2022-09-23T00:10:08.749Z,11.78
2022-09-23T00:10:21.594Z,11.77
2022-09-23T00:10:37.257Z,11.75
2022-09-23T00:10:49.162Z,11.72
2022-09-23T00:11:07.081Z,11.72
2022-09-23T00:11:22.094Z,11.72
2022-09-23T00:11:34.335Z,11.73
2022-09-23T00:11:46.211Z,11.73
2022-09-23T00:11:58.333Z,11.74
2022-09-23T00:12:10.415Z,11.70
2022-09-23T00:12:22.386Z,11.71
2022-09-23T00:12:34.258Z,11.71
2022-09-23T00:12:46.160Z,11.70
2022-09-23T00:12:58.771Z,11.70
2022-09-23T00:13:10.703Z,11.69
2022-09-23T00:13:24.393Z,11.69
2022-09-23T00:13:37.243Z,11.66
2022-09-23T00:13:52.998Z,11.68
2022-09-23T00:14:04.942Z,11.70
2022-09-23T00:14:17.503Z,11.71
2022-09-23T00:14:29.430Z,11.69
2022-09-23T00:14:41.322Z,11.66
2022-09-23T00:14:53.303Z,11.63
2022-09-23T00:15:05.656Z,11.60
2022-09-23T00:15:18.006Z,11.60
2022-09-23T00:15:31.100Z,11.62
2022-09-23T00:15:43.063Z,11.63
2022-09-23T00:15:54.958Z,11.54
2022-09-23T00:16:10.486Z,11.43
2022-09-23T00:16:25.699Z,11.45
2022-09-23T00:16:38.197Z,11.44
2022-09-23T00:16:50.351Z,11.45
2022-09-23T00:17:02.290Z,11.47
2022-09-23T00:17:14.284Z,11.48
2022-09-23T00:17:27.173Z,11.51
2022-09-23T00:17:40.318Z,11.52
2022-09-23T00:17:52.707Z,11.51
2022-09-23T00:18:04.633Z,11.51
2022-09-23T00:18:17.856Z,11.53
2022-09-23T00:18:29.731Z,11.54
2022-09-23T00:18:42.184Z,11.57
2022-09-23T00:18:54.765Z,11.58
2022-09-23T00:19:06.696Z,11.59
2022-09-23T00:19:18.598Z,11.58
2022-09-23T00:19:30.462Z,11.57
2022-09-23T00:19:42.556Z,11.55
2022-09-23T00:19:55.351Z,11.56
2022-09-23T00:20:09.280Z,11.49
2022-09-23T00:20:21.205Z,11.49
2022-09-23T00:20:35.157Z,11.49
2022-09-23T00:20:47.310Z,11.49
2022-09-23T00:21:04.579Z,11.46
2022-09-23T00:21:17.313Z,11.45
2022-09-23T00:21:29.423Z,11.44
2022-09-23T00:21:42.500Z,11.42
2022-09-23T00:21:56.661Z,11.40
2022-09-23T00:22:08.790Z,11.41
2022-09-23T00:22:21.223Z,11.43
2022-09-23T00:22:33.232Z,11.41
2022-09-23T00:22:45.596Z,11.43
2022-09-23T00:22:57.719Z,11.44
2022-09-23T00:23:09.652Z,11.42
2022-09-23T00:23:21.552Z,11.39
2022-09-23T00:23:34.203Z,11.40
2022-09-23T00:23:46.232Z,11.41
2022-09-23T00:23:58.590Z,11.39
2022-09-23T00:24:10.528Z,11.39
2022-09-23T00:24:23.463Z,11.39
2022-09-23T00:24:35.367Z,11.38
2022-09-23T00:24:47.387Z,11.37
2022-09-23T00:24:59.268Z,11.39
2022-09-23T00:25:11.936Z,11.41
2022-09-23T00:25:23.804Z,11.42
2022-09-23T00:25:35.675Z,11.42
2022-09-23T00:25:59.341Z,11.44
2022-09-23T00:26:15.617Z,11.46
2022-09-23T00:26:27.813Z,11.45
2022-09-23T00:26:39.779Z,11.45
2022-09-23T00:26:51.665Z,11.41
2022-09-23T00:27:03.744Z,11.37
2022-09-23T00:27:16.018Z,11.36
2022-09-23T00:27:28.991Z,11.34
2022-09-23T00:27:41.911Z,11.33
2022-09-23T00:27:53.993Z,11.33
2022-09-23T00:28:05.933Z,11.33
2022-09-23T00:28:17.808Z,11.32
2022-09-23T00:28:30.609Z,11.32
2022-09-23T00:28:43.125Z,11.33
2022-09-23T00:28:55.008Z,11.31
2022-09-23T00:29:06.924Z,11.33
2022-09-23T00:29:18.824Z,11.33
2022-09-23T00:29:31.620Z,11.33
2022-09-23T00:29:43.550Z,11.31
2022-09-23T00:29:55.500Z,11.32
2022-09-23T00:30:09.585Z,11.31
2022-09-23T00:30:23.384Z,11.32
2022-09-23T00:30:35.444Z,11.30
2022-09-23T00:30:47.412Z,11.29
2022-09-23T00:31:10.627Z,11.29
2022-09-23T00:31:25.316Z,11.30
2022-09-23T00:31:37.197Z,11.32
2022-09-23T00:31:49.175Z,11.32
2022-09-23T00:32:01.253Z,11.32
2022-09-23T00:32:13.341Z,11.34
2022-09-23T00:32:25.669Z,11.32
2022-09-23T00:32:38.054Z,11.28
2022-09-23T00:32:49.945Z,11.29
2022-09-23T00:33:01.807Z,11.30
2022-09-23T00:33:13.740Z,11.29
2022-09-23T00:33:25.611Z,11.29
2022-09-23T00:33:37.946Z,11.29
2022-09-23T00:33:59.282Z,11.26
2022-09-23T00:34:11.692Z,11.29
2022-09-23T00:34:23.580Z,11.31
2022-09-23T00:34:35.437Z,11.34
2022-09-23T00:34:47.910Z,11.30
2022-09-23T00:35:00.035Z,11.27
2022-09-23T00:35:11.934Z,11.25
2022-09-23T00:35:23.809Z,11.25
2022-09-23T00:35:35.704Z,11.24
2022-09-23T00:35:47.730Z,11.22
2022-09-23T00:36:04.504Z,11.18
2022-09-23T00:36:16.405Z,11.19
2022-09-23T00:36:29.521Z,11.19
2022-09-23T00:36:42.795Z,11.20
2022-09-23T00:36:54.650Z,11.22
2022-09-23T00:37:06.568Z,11.22
2022-09-23T00:37:19.669Z,11.23
2022-09-23T00:37:31.716Z,11.25
2022-09-23T00:37:43.598Z,11.25
2022-09-23T00:37:56.120Z,11.24
2022-09-23T00:38:08.060Z,11.23
2022-09-23T00:38:19.947Z,11.22
2022-09-23T00:38:33.829Z,11.23
2022-09-23T00:38:46.145Z,11.22
2022-09-23T00:38:58.361Z,11.23
2022-09-23T00:39:10.288Z,11.20
2022-09-23T00:39:22.972Z,11.18
2022-09-23T00:39:34.834Z,11.14
2022-09-23T00:39:46.867Z,11.12
2022-09-23T00:39:59.647Z,11.14
2022-09-23T00:40:13.062Z,11.13
2022-09-23T00:40:26.027Z,11.14
2022-09-23T00:40:43.568Z,11.15
2022-09-23T00:40:55.793Z,11.15
2022-09-23T00:41:07.859Z,11.13
2022-09-23T00:41:19.991Z,11.14
2022-09-23T00:41:32.665Z,11.12
2022-09-23T00:41:44.563Z,11.14
2022-09-23T00:41:56.462Z,11.12
2022-09-23T00:42:18.540Z,11.13
2022-09-23T00:42:30.521Z,11.14
2022-09-23T00:42:51.924Z,11.09
2022-09-23T00:43:04.646Z,11.11
2022-09-23T00:43:17.182Z,11.12
2022-09-23T00:43:49.945Z,11.09
2022-09-23T00:44:23.221Z,11.08
2022-09-23T00:44:48.104Z,11.09
2022-09-23T00:45:00.831Z,11.11
2022-09-23T00:45:12.884Z,11.11
2022-09-23T00:45:24.770Z,11.14
2022-09-23T00:45:36.717Z,11.15
2022-09-23T00:45:51.059Z,11.13
2022-09-23T00:46:03.630Z,11.12
2022-09-23T00:46:23.200Z,11.04
2022-09-23T00:46:39.964Z,11.01
2022-09-23T00:46:52.242Z,11.04
2022-09-23T00:47:04.325Z,11.05
2022-09-23T00:47:19.387Z,11.07
2022-09-23T00:47:33.625Z,11.09
2022-09-23T00:47:52.302Z,11.07
2022-09-23T00:48:05.003Z,11.08
2022-09-23T00:48:20.300Z,11.06
2022-09-23T00:48:32.302Z,11.07
2022-09-23T00:48:45.649Z,11.09
2022-09-23T00:49:07.213Z,11.12
2022-09-23T00:49:28.353Z,11.10
2022-09-23T00:49:40.535Z,11.06
2022-09-23T00:50:09.877Z,11.09
2022-09-23T00:50:35.039Z,10.99
2022-09-23T00:50:51.021Z,10.99
2022-09-23T00:51:04.691Z,11.00
2022-09-23T00:51:21.291Z,11.03
2022-09-23T00:51:38.554Z,11.06
2022-09-23T00:51:57.428Z,11.07
2022-09-23T00:52:15.368Z,11.06
2022-09-23T00:52:28.330Z,10.90
2022-09-23T00:52:40.545Z,10.78
2022-09-23T00:52:56.703Z,10.76
2022-09-23T00:53:12.419Z,10.79
2022-09-23T00:53:26.639Z,10.84
2022-09-23T00:53:39.719Z,10.85
2022-09-23T00:53:52.653Z,10.88
2022-09-23T00:54:06.220Z,10.88
2022-09-23T00:54:18.691Z,10.87
2022-09-23T00:54:30.971Z,10.88
2022-09-23T00:54:43.460Z,10.89
2022-09-23T00:54:57.592Z,10.86
2022-09-23T00:55:15.882Z,10.82
2022-09-23T00:55:34.537Z,10.86
2022-09-23T00:55:54.392Z,10.88
2022-09-23T00:56:10.132Z,10.86
2022-09-23T00:56:24.127Z,10.88
2022-09-23T00:56:38.864Z,10.89
2022-09-23T00:56:51.275Z,10.87
2022-09-23T00:57:05.597Z,10.89
2022-09-23T00:57:18.234Z,10.92
2022-09-23T00:57:31.169Z,10.79
2022-09-23T00:57:44.626Z,10.84
2022-09-23T00:57:59.114Z,10.83
2022-09-23T00:58:15.536Z,10.82
2022-09-23T00:58:31.583Z,10.87
2022-09-23T00:58:45.341Z,10.74
2022-09-23T00:58:57.326Z,10.75
2022-09-23T00:59:10.682Z,10.75
2022-09-23T00:59:24.333Z,10.76
2022-09-23T00:59:37.094Z,10.82
2022-09-23T00:59:50.858Z,10.84
2022-09-23T01:00:04.406Z,10.85
2022-09-23T01:00:16.399Z,10.77
2022-09-23T01:00:28.697Z,10.78
2022-09-23T01:00:42.049Z,10.82
2022-09-23T01:00:55.497Z,10.85
2022-09-23T01:01:07.933Z,10.86
2022-09-23T01:01:21.120Z,10.88
2022-09-23T01:01:33.166Z,10.84
2022-09-23T01:01:46.085Z,10.68
2022-09-23T01:02:00.227Z,10.67
2022-09-23T01:02:14.223Z,10.72
2022-09-23T01:02:28.107Z,10.75
2022-09-23T01:02:40.160Z,10.75
2022-09-23T01:02:52.737Z,10.75
2022-09-23T01:03:06.625Z,10.77
2022-09-23T01:03:19.568Z,10.78
2022-09-23T01:03:32.011Z,10.80
2022-09-23T01:03:45.423Z,10.83
2022-09-23T01:03:58.335Z,10.85
2022-09-23T01:04:10.256Z,10.90
2022-09-23T01:04:24.451Z,10.90
2022-09-23T01:04:36.602Z,10.92
2022-09-23T01:04:50.763Z,10.91
2022-09-23T01:05:06.112Z,10.90
2022-09-23T01:05:19.273Z,10.91
2022-09-23T01:05:33.455Z,10.87
2022-09-23T01:05:46.888Z,10.85
2022-09-23T01:05:59.559Z,10.81
2022-09-23T01:06:12.964Z,10.82
2022-09-23T01:06:25.247Z,10.81
2022-09-23T01:06:37.232Z,10.83
2022-09-23T01:06:49.362Z,10.83
2022-09-23T01:07:01.253Z,10.84
2022-09-23T01:07:13.632Z,10.86
2022-09-23T01:07:25.518Z,10.78
2022-09-23T01:07:37.493Z,10.74
2022-09-23T01:07:50.003Z,10.77
2022-09-23T01:08:04.756Z,10.76
2022-09-23T01:08:17.516Z,10.78
2022-09-23T01:08:29.755Z,10.79
2022-09-23T01:08:45.892Z,10.78
2022-09-23T01:08:57.775Z,10.79
2022-09-23T01:09:09.682Z,10.79
2022-09-23T01:09:22.961Z,10.80
2022-09-23T01:09:35.308Z,10.81
2022-09-23T01:09:48.591Z,10.79
2022-09-23T01:10:01.811Z,10.79
2022-09-23T01:10:16.795Z,10.81
2022-09-23T01:10:36.988Z,10.79
2022-09-23T01:10:48.813Z,10.79
2022-09-23T01:11:18.987Z,10.84
2022-09-23T01:11:48.313Z,10.64
2022-09-23T01:12:12.500Z,10.65
2022-09-23T01:12:42.701Z,10.68
2022-09-23T01:13:42.571Z,10.58
2022-09-23T01:14:06.639Z,10.57
2022-09-23T01:14:34.300Z,10.58
2022-09-23T01:14:57.951Z,10.62
2022-09-23T01:15:24.619Z,10.67
2022-09-23T01:15:45.795Z,10.71
2022-09-23T01:15:57.617Z,10.68
2022-09-23T01:16:15.998Z,10.66
2022-09-23T01:16:38.004Z,10.66
2022-09-23T01:17:04.389Z,10.66
2022-09-23T01:17:29.438Z,10.58
2022-09-23T01:17:50.336Z,10.58
2022-09-23T01:18:21.107Z,10.55
2022-09-23T01:18:35.645Z,10.28
2022-09-23T01:19:15.204Z,10.45
2022-09-23T01:19:36.168Z,10.54
2022-09-23T01:20:27.913Z,10.53
2022-09-23T01:20:42.428Z,10.54
2022-09-23T01:21:33.268Z,10.56
2022-09-23T01:21:58.367Z,10.58
2022-09-23T01:22:19.470Z,10.55
2022-09-23T01:22:51.546Z,10.57
2022-09-23T01:23:22.033Z,10.48
2022-09-23T01:23:55.446Z,10.46
2022-09-23T01:24:22.999Z,10.48
2022-09-23T01:24:51.251Z,10.47
2022-09-23T01:25:08.860Z,10.50
2022-09-23T01:25:48.511Z,10.49
2022-09-23T01:26:06.228Z,10.50
2022-09-23T01:26:39.511Z,10.51
2022-09-23T01:27:22.312Z,10.45
2022-09-23T01:27:58.762Z,10.45
2022-09-23T01:28:35.100Z,10.39
2022-09-23T01:29:15.594Z,10.37
2022-09-23T01:30:06.776Z,10.36
2022-09-23T01:30:47.569Z,10.22
2022-09-23T01:31:08.267Z,10.18
2022-09-23T01:31:31.957Z,10.23
2022-09-23T01:31:51.300Z,10.24
2022-09-23T01:32:37.820Z,10.20
2022-09-23T01:33:20.021Z,10.23
2022-09-23T01:33:53.079Z,10.23
2022-09-23T01:34:32.931Z,10.18
2022-09-23T01:34:47.710Z,10.20
2022-09-23T01:35:04.684Z,10.19
2022-09-23T01:35:38.465Z,10.22
2022-09-23T01:36:04.259Z,10.13
2022-09-23T01:36:27.980Z,10.09
2022-09-23T01:36:51.052Z,10.12
2022-09-23T01:37:31.723Z,10.08
2022-09-23T01:38:09.543Z,9.95
2022-09-23T01:38:32.731Z,9.96
2022-09-23T01:39:08.628Z,9.98
2022-09-23T01:39:37.889Z,10.01
2022-09-23T01:40:11.365Z,10.07
2022-09-23T01:40:42.512Z,10.08
2022-09-23T01:41:04.489Z,9.90
2022-09-23T01:41:37.521Z,9.94
2022-09-23T01:42:39.473Z,9.90
2022-09-23T01:43:04.453Z,9.84
2022-09-23T01:43:36.192Z,9.84
2022-09-23T01:43:53.173Z,9.75
2022-09-23T01:44:10.154Z,9.77
2022-09-23T01:44:48.090Z,9.82
2022-09-23T01:45:08.983Z,9.79
2022-09-23T01:45:43.398Z,9.80
2022-09-23T01:45:59.797Z,9.82
2022-09-23T01:46:23.184Z,9.88
2022-09-23T01:46:51.571Z,9.81
2022-09-23T01:47:15.289Z,9.77
2022-09-23T01:47:30.497Z,9.74
2022-09-23T01:47:51.651Z,9.64
2022-09-23T01:48:13.885Z,9.56
2022-09-23T01:48:46.512Z,9.62
2022-09-23T01:49:06.791Z,9.69
2022-09-23T01:49:34.408Z,9.79
2022-09-23T01:49:53.924Z,9.74
2022-09-23T01:50:28.705Z,9.67
2022-09-23T01:50:56.258Z,9.74
2022-09-23T01:51:19.027Z,9.79
2022-09-23T01:51:35.553Z,9.83
2022-09-23T01:51:59.908Z,9.88
2022-09-23T01:52:17.579Z,9.87
2022-09-23T01:52:40.283Z,9.83
2022-09-23T01:52:54.967Z,9.82
2022-09-23T01:53:14.674Z,9.72
2022-09-23T01:53:49.441Z,9.65
2022-09-23T01:54:15.853Z,9.71
2022-09-23T01:54:35.692Z,9.77
2022-09-23T01:54:56.563Z,9.69
2022-09-23T01:55:20.691Z,9.58
2022-09-23T01:55:38.300Z,9.57
2022-09-23T01:55:58.932Z,9.58
2022-09-23T01:56:17.739Z,9.50
2022-09-23T01:56:38.501Z,9.56
2022-09-23T01:57:01.581Z,9.63
2022-09-23T01:57:27.202Z,9.67
2022-09-23T01:57:44.813Z,9.71
2022-09-23T01:58:19.466Z,9.71
2022-09-23T01:58:55.897Z,9.70
2022-09-23T01:59:21.470Z,9.71
2022-09-23T01:59:53.498Z,9.77
2022-09-23T02:00:11.628Z,9.78
2022-09-23T02:00:24.512Z,9.80
2022-09-23T02:00:41.384Z,9.81
2022-09-23T02:00:59.369Z,9.82
2022-09-23T02:01:23.385Z,9.83
2022-09-23T02:01:41.295Z,9.82
2022-09-23T02:02:06.193Z,9.80
2022-09-23T02:02:28.961Z,9.78
2022-09-23T02:02:56.235Z,9.78
2022-09-23T02:03:15.291Z,9.78
2022-09-23T02:03:48.385Z,9.79
2022-09-23T02:04:08.730Z,9.73
2022-09-23T02:04:39.532Z,9.69
2022-09-23T02:05:11.040Z,9.71
2022-09-23T02:05:25.928Z,9.70
2022-09-23T02:05:43.480Z,9.72
2022-09-23T02:06:05.149Z,9.74
2022-09-23T02:06:23.167Z,9.69
2022-09-23T02:06:51.195Z,9.64
2022-09-23T02:07:10.629Z,9.48
2022-09-23T02:07:29.705Z,9.32
2022-09-23T02:07:50.203Z,9.30
2022-09-23T02:08:17.667Z,9.31
2022-09-23T02:08:35.609Z,9.31
2022-09-23T02:08:56.454Z,9.29
2022-09-23T02:09:15.117Z,9.25
2022-09-23T02:09:35.495Z,9.30
2022-09-23T02:09:57.821Z,9.38
2022-09-23T02:10:19.779Z,9.42
2022-09-23T02:10:37.337Z,9.30
2022-09-23T02:10:56.382Z,9.32
2022-09-23T02:11:15.955Z,9.34
2022-09-23T02:11:30.871Z,9.34
2022-09-23T02:11:48.059Z,9.32
2022-09-23T02:12:06.015Z,9.32
2022-09-23T02:12:20.488Z,9.37
2022-09-23T02:12:38.339Z,9.42
2022-09-23T02:12:54.820Z,9.39
2022-09-23T02:13:15.584Z,9.31
2022-09-23T02:13:32.503Z,9.22
2022-09-23T02:13:50.969Z,9.22
2022-09-23T02:14:06.804Z,9.23
2022-09-23T02:14:24.550Z,9.25
2022-09-23T02:14:44.320Z,9.29
2022-09-23T02:15:29.032Z,9.35
2022-09-23T02:15:50.435Z,9.39
2022-09-23T02:16:09.499Z,9.39
2022-09-23T02:16:30.181Z,9.38
2022-09-23T02:16:47.446Z,9.43
2022-09-23T02:17:08.689Z,9.44
2022-09-23T02:17:34.189Z,9.42
2022-09-23T02:17:52.168Z,9.37
2022-09-23T02:18:13.175Z,9.40
2022-09-23T02:18:34.045Z,9.44
2022-09-23T02:18:53.225Z,9.43
2022-09-23T02:19:13.228Z,9.46
2022-09-23T02:19:33.813Z,9.34
2022-09-23T02:19:50.504Z,9.35
2022-09-23T02:20:06.868Z,9.40
2022-09-23T02:20:39.497Z,9.08
2022-09-23T02:20:55.730Z,9.16
2022-09-23T02:21:09.494Z,9.26
2022-09-23T02:21:27.409Z,9.23
2022-09-23T02:21:52.752Z,9.30
2022-09-23T02:22:23.652Z,9.40
2022-09-23T02:22:56.809Z,9.44
2022-09-23T02:23:13.078Z,9.46
2022-09-23T02:23:31.911Z,9.38
2022-09-23T02:23:51.308Z,9.37
2022-09-23T02:24:12.711Z,9.39
2022-09-23T02:24:34.543Z,9.38
2022-09-23T02:24:46.682Z,9.44
2022-09-23T02:24:58.797Z,9.43
2022-09-23T02:25:12.494Z,9.43
2022-09-23T02:25:35.682Z,9.37
2022-09-23T02:25:56.482Z,9.39
2022-09-23T02:26:19.596Z,9.40
2022-09-23T02:26:49.748Z,9.37
2022-09-23T02:27:19.767Z,9.45
2022-09-23T02:27:50.452Z,9.43
2022-09-23T02:28:22.544Z,9.47
2022-09-23T02:28:53.419Z,9.56
2022-09-23T02:29:42.751Z,9.51
2022-09-23T02:30:09.420Z,9.49
2022-09-23T02:30:27.147Z,9.54
2022-09-23T02:30:49.311Z,9.59
2022-09-23T02:31:14.711Z,9.58
2022-09-23T02:32:00.141Z,9.61
2022-09-23T02:32:25.063Z,9.63
2022-09-23T02:32:55.539Z,9.64
2022-09-23T02:33:26.454Z,9.55
2022-09-23T02:33:55.389Z,9.58
2022-09-23T02:34:32.050Z,9.64
2022-09-23T02:35:10.066Z,9.48
2022-09-23T02:35:32.767Z,9.52
2022-09-23T02:36:15.135Z,9.58
2022-09-23T02:36:36.863Z,9.58
2022-09-23T02:36:53.069Z,9.61
2022-09-23T02:37:11.641Z,9.65
2022-09-23T02:37:43.556Z,9.69
2022-09-23T02:38:13.413Z,9.62
2022-09-23T02:38:36.071Z,9.68
2022-09-23T02:39:00.539Z,9.71
2022-09-23T02:39:14.370Z,9.70
2022-09-23T02:39:36.718Z,9.69
2022-09-23T02:40:00.577Z,9.65
2022-09-23T02:40:37.989Z,9.70
2022-09-23T02:41:04.587Z,9.71
2022-09-23T02:41:32.432Z,9.74
2022-09-23T02:42:10.055Z,9.76
2022-09-23T02:42:30.612Z,9.70
2022-09-23T02:42:47.184Z,9.70
2022-09-23T02:43:11.348Z,9.73
2022-09-23T02:43:42.798Z,9.78
2022-09-23T02:44:06.396Z,9.81
2022-09-23T02:44:19.930Z,9.71
2022-09-23T02:44:32.927Z,9.73
2022-09-23T02:44:44.812Z,9.66
2022-09-23T02:44:56.834Z,9.67
2022-09-23T02:45:09.019Z,9.66
2022-09-23T02:45:20.990Z,9.65
2022-09-23T02:45:33.866Z,9.64
2022-09-23T02:45:47.303Z,9.64
2022-09-23T02:46:00.359Z,9.64
2022-09-23T02:46:12.443Z,9.59
2022-09-23T02:46:24.508Z,9.60
2022-09-23T02:46:37.033Z,9.59
2022-09-23T02:46:52.242Z,9.60
2022-09-23T02:47:04.234Z,9.67
2022-09-23T02:47:20.447Z,9.62
2022-09-23T02:47:35.824Z,9.60
2022-09-23T02:47:53.252Z,9.40
2022-09-23T02:48:14.643Z,9.53
2022-09-23T02:48:32.350Z,9.60
2022-09-23T02:49:12.478Z,9.54
2022-09-23T02:49:29.658Z,9.60
2022-09-23T02:49:41.568Z,9.57
2022-09-23T02:49:56.229Z,9.62
2022-09-23T02:50:09.406Z,9.65
2022-09-23T02:50:22.539Z,9.69
2022-09-23T02:50:34.728Z,9.69
2022-09-23T02:50:47.697Z,9.71
2022-09-23T02:51:02.218Z,9.72
2022-09-23T02:51:14.639Z,9.77
2022-09-23T02:51:28.841Z,9.80
2022-09-23T02:51:41.483Z,9.80
2022-09-23T02:51:54.491Z,9.80
2022-09-23T02:52:07.511Z,9.80
2022-09-23T02:52:19.441Z,9.80
2022-09-23T02:52:32.545Z,9.82
2022-09-23T02:52:46.276Z,9.81
2022-09-23T02:52:58.881Z,9.72
2022-09-23T02:53:10.788Z,9.59
2022-09-23T02:53:23.991Z,9.59
2022-09-23T02:53:36.556Z,9.62
2022-09-23T02:53:48.605Z,9.65
2022-09-23T02:54:03.393Z,9.68
2022-09-23T02:54:20.283Z,9.71
2022-09-23T02:54:33.801Z,9.73
2022-09-23T02:54:45.772Z,9.71
2022-09-23T02:54:58.100Z,9.69
2022-09-23T02:55:13.024Z,9.67
2022-09-23T02:55:31.231Z,9.71
2022-09-23T02:55:43.496Z,9.74
2022-09-23T02:55:55.355Z,9.75
2022-09-23T02:56:16.068Z,9.76
2022-09-23T02:56:28.657Z,9.79
2022-09-23T02:56:41.073Z,9.59
2022-09-23T02:56:53.383Z,9.63
2022-09-23T02:57:07.694Z,9.63
2022-09-23T02:57:19.735Z,9.67
2022-09-23T02:57:32.162Z,9.69
2022-09-23T02:57:45.260Z,9.68
2022-09-23T02:58:01.391Z,9.69
2022-09-23T02:58:14.175Z,9.71
2022-09-23T02:58:26.243Z,9.72
2022-09-23T02:58:38.160Z,9.74
2022-09-23T02:58:52.958Z,9.73
2022-09-23T02:59:06.052Z,9.75
2022-09-23T02:59:20.220Z,9.79
2022-09-23T02:59:34.051Z,9.79
2022-09-23T02:59:46.671Z,9.76
2022-09-23T02:59:58.599Z,9.71
2022-09-23T03:00:11.267Z,9.70
2022-09-23T03:00:23.765Z,9.68
2022-09-23T03:01:06.040Z,9.70
2022-09-23T03:01:31.381Z,9.70
2022-09-23T03:01:49.145Z,9.75
2022-09-23T03:02:06.917Z,9.73
2022-09-23T03:02:33.951Z,9.74
2022-09-23T03:03:08.266Z,9.59
2022-09-23T03:03:33.974Z,9.67
2022-09-23T03:04:05.043Z,9.66
2022-09-23T03:04:50.746Z,9.69
2022-09-23T03:05:19.236Z,9.67
2022-09-23T03:05:37.989Z,9.70
2022-09-23T03:05:55.212Z,9.71
2022-09-23T03:06:36.789Z,9.74
2022-09-23T03:06:54.434Z,9.77
2022-09-23T03:07:24.304Z,9.78
2022-09-23T03:08:02.840Z,9.62
2022-09-23T03:09:18.827Z,9.78
2022-09-23T03:09:43.123Z,9.48
2022-09-23T03:10:21.816Z,9.49
2022-09-23T03:10:58.305Z,9.55
2022-09-23T03:11:13.387Z,9.52
2022-09-23T03:11:26.143Z,9.50
2022-09-23T03:11:42.737Z,9.50
2022-09-23T03:12:16.402Z,9.51
2022-09-23T03:12:42.323Z,9.57
2022-09-23T03:13:26.153Z,9.56
2022-09-23T03:14:16.813Z,9.58
2022-09-23T03:14:49.234Z,9.41
2022-09-23T03:15:10.053Z,9.28
2022-09-23T03:15:33.331Z,9.20
2022-09-23T03:16:06.087Z,9.29
2022-09-23T03:16:34.640Z,9.36
2022-09-23T03:17:03.490Z,9.41
2022-09-23T03:17:29.427Z,9.30
2022-09-23T03:18:08.165Z,9.34
2022-09-23T03:18:42.081Z,9.10
2022-09-23T03:19:19.726Z,9.16
2022-09-23T03:19:46.272Z,9.17
2022-09-23T03:20:15.333Z,9.15
2022-09-23T03:20:34.185Z,9.17
2022-09-23T03:21:03.105Z,9.18
2022-09-23T03:21:25.009Z,9.20
2022-09-23T03:21:55.289Z,9.17
2022-09-23T03:22:35.484Z,9.24
2022-09-23T03:22:54.526Z,9.26
2022-09-23T03:23:10.553Z,9.27
2022-09-23T03:23:31.283Z,9.29
2022-09-23T03:23:45.180Z,9.30
2022-09-23T03:24:00.549Z,9.31
2022-09-23T03:24:14.776Z,9.33
2022-09-23T03:24:31.170Z,9.24
2022-09-23T03:24:45.516Z,9.28
2022-09-23T03:25:05.883Z,9.28
2022-09-23T03:25:24.123Z,9.30
2022-09-23T03:25:40.146Z,9.35
2022-09-23T03:25:55.496Z,9.28
2022-09-23T03:26:13.564Z,9.30
2022-09-23T03:26:31.408Z,9.36
2022-09-23T03:26:47.032Z,9.36
2022-09-23T03:27:03.233Z,9.25
2022-09-23T03:27:20.026Z,9.25
2022-09-23T03:27:34.671Z,9.10
2022-09-23T03:27:46.575Z,9.17
2022-09-23T03:28:01.168Z,9.22
2022-09-23T03:28:16.481Z,9.25
2022-09-23T03:28:28.973Z,9.21
2022-09-23T03:28:44.298Z,9.22
2022-09-23T03:28:56.564Z,9.18
2022-09-23T03:29:11.733Z,9.09
2022-09-23T03:29:24.236Z,9.14
2022-09-23T03:29:36.921Z,9.15
2022-09-23T03:29:51.614Z,9.14
2022-09-23T03:30:06.784Z,9.05
2022-09-23T03:30:19.048Z,9.10
2022-09-23T03:30:37.152Z,9.06
2022-09-23T03:30:54.252Z,9.11
2022-09-23T03:31:06.192Z,9.08
2022-09-23T03:31:18.331Z,9.07
2022-09-23T03:31:32.289Z,9.03
2022-09-23T03:31:44.925Z,9.08
2022-09-23T03:31:57.984Z,9.11
2022-09-23T03:32:10.129Z,9.16
2022-09-23T03:32:26.739Z,9.02
2022-09-23T03:32:42.740Z,8.94
2022-09-23T03:32:57.028Z,8.91
2022-09-23T03:33:12.408Z,8.89
2022-09-23T03:33:28.793Z,8.95
2022-09-23T03:33:47.034Z,8.92
2022-09-23T03:34:01.837Z,8.93
2022-09-23T03:34:21.361Z,8.99
2022-09-23T03:34:35.317Z,9.03
2022-09-23T03:34:50.591Z,9.07
2022-09-23T03:35:04.836Z,9.12
2022-09-23T03:35:17.172Z,9.15
2022-09-23T03:35:32.654Z,9.15
2022-09-23T03:36:12.487Z,9.19
2022-09-23T03:36:49.979Z,9.11
2022-09-23T03:37:14.131Z,9.05
2022-09-23T03:37:32.350Z,9.01
2022-09-23T03:37:46.836Z,9.01
2022-09-23T03:38:11.968Z,8.93
2022-09-23T03:38:27.855Z,8.96
2022-09-23T03:38:45.180Z,9.03
2022-09-23T03:39:11.655Z,9.00
2022-09-23T03:39:32.046Z,9.05
2022-09-23T03:39:50.812Z,9.00
2022-09-23T03:40:23.979Z,8.93
2022-09-23T03:40:43.354Z,8.82
2022-09-23T03:40:58.036Z,8.72
2022-09-23T03:41:12.096Z,8.67
2022-09-23T03:41:32.657Z,8.56
2022-09-23T03:41:50.797Z,8.50
2022-09-23T03:42:24.559Z,8.48
2022-09-23T03:42:38.084Z,8.47
2022-09-23T03:42:50.361Z,8.49
2022-09-23T03:43:05.009Z,8.54
2022-09-23T03:43:17.027Z,8.35
2022-09-23T03:43:30.042Z,8.35
2022-09-23T03:43:44.122Z,8.22
2022-09-23T03:43:58.389Z,8.30
2022-09-23T03:44:11.975Z,8.36
2022-09-23T03:44:24.589Z,8.44
2022-09-23T03:44:40.445Z,8.48
2022-09-23T03:44:54.217Z,8.50
2022-09-23T03:45:11.077Z,8.51
2022-09-23T03:45:27.908Z,8.55
2022-09-23T03:45:42.556Z,8.59
2022-09-23T03:45:57.569Z,8.65
2022-09-23T03:46:09.769Z,8.67
2022-09-23T03:46:25.384Z,8.68
2022-09-23T03:46:37.489Z,8.69
2022-09-23T03:46:52.448Z,8.76
2022-09-23T03:47:04.514Z,8.78
2022-09-23T03:47:16.815Z,8.85
2022-09-23T03:47:28.823Z,8.86
2022-09-23T03:47:42.198Z,8.71
2022-09-23T03:47:54.196Z,8.68
2022-09-23T03:48:07.131Z,8.71
2022-09-23T03:48:21.345Z,8.61
2022-09-23T03:48:33.308Z,8.61
2022-09-23T03:48:45.882Z,8.63
2022-09-23T03:49:05.366Z,8.70
2022-09-23T03:49:24.047Z,8.62
2022-09-23T03:49:39.648Z,8.58
2022-09-23T03:49:52.160Z,8.46
2022-09-23T03:50:04.316Z,8.54
2022-09-23T03:50:20.798Z,8.48
2022-09-23T03:50:32.727Z,8.57
2022-09-23T03:50:44.609Z,8.61
2022-09-23T03:50:56.504Z,8.64
2022-09-23T03:51:23.657Z,8.58
2022-09-23T03:51:35.741Z,8.61
2022-09-23T03:51:47.630Z,8.64
2022-09-23T03:52:00.111Z,8.71
2022-09-23T03:52:12.028Z,8.77
2022-09-23T03:52:25.871Z,8.83
2022-09-23T03:52:39.648Z,8.86
2022-09-23T03:52:51.532Z,8.90
2022-09-23T03:53:03.408Z,8.94
2022-09-23T03:53:15.352Z,8.98
2022-09-23T03:53:27.234Z,8.99
2022-09-23T03:53:39.537Z,9.00
2022-09-23T03:53:51.434Z,8.93
2022-09-23T03:54:03.303Z,8.92
2022-09-23T03:54:15.662Z,8.94
2022-09-23T03:54:29.896Z,8.87
2022-09-23T03:54:41.786Z,8.83
2022-09-23T03:54:53.810Z,8.77
2022-09-23T03:55:07.046Z,8.80
2022-09-23T03:55:19.446Z,8.80
2022-09-23T03:55:32.175Z,8.84
2022-09-23T03:55:45.533Z,8.85
2022-09-23T03:55:57.404Z,8.90
2022-09-23T03:56:11.579Z,8.90
2022-09-23T03:56:23.490Z,8.92
2022-09-23T03:56:35.468Z,8.97
2022-09-23T03:56:47.856Z,9.00
2022-09-23T03:57:01.957Z,8.97
2022-09-23T03:57:14.344Z,9.01
2022-09-23T03:57:26.320Z,9.04
2022-09-23T03:57:38.430Z,9.07